Track Хрипун Алексей

Time Latitude Longitude Accuracy (66% radius in meters) Altitude (meters) Speed (km/hour) Bearing (degrees) Battery (%) GPS flag
08:20:52 60.408707 30.325397 7 69.7 1.6504857540131 344.55999755859 73 1 delete
08:20:49 60.408663 30.325493 8 69.5 2.0823886394501 319.9700012207 73 1 delete
08:20:45 60.408613 30.325657 7 66.3 3.974534034729 293.26000976562 73 1 delete
08:20:41 60.408565 30.325872 9 65.8 2.5091495513916 305.32998657227 73 1 delete
08:20:38 60.408490 30.326037 8 68.3 2.4885828495026 304.98999023438 73 1 delete
08:20:35 60.408385 30.326155 10 63.5 4.2573275566101 293.80999755859 73 1 delete
08:20:33 60.408318 30.326292 8 59.7 4.5709714889526 294.85000610352 73 1 delete
08:20:31 60.408253 30.326422 8 57.3 4.4424290657043 302.39999389648 73 1 delete
08:20:29 60.408165 30.326527 7 56.1 4.6532387733459 306.2799987793 73 1 delete
08:20:27 60.408078 30.326638 8 57.5 4.308744430542 319.79000854492 73 1 delete
08:20:25 60.407995 30.326755 7 57.4 4.3961534500122 340.17999267578 73 1 delete
08:20:22 60.407898 30.326915 8 57.1 4.884614944458 331.51998901367 73 1 delete
08:20:20 60.407815 30.327037 7 56.6 3.4449388980865 334.04000854492 73 1 delete
08:20:17 60.407795 30.327165 7 62 1.7276111841202 333.04000854492 73 1 delete
08:20:13 60.407745 30.327193 7 70.9 1.8972873687744 335.33999633789 85 1 delete
08:20:07 60.407643 30.327308 8 69 1.5630767345428 357.7799987793 85 1 delete
08:20:02 60.407548 30.327353 8 66.1 4.0979347229004 343.19000244141 85 1 delete
08:19:59 60.407480 30.327487 7 67.7 4.9925909042358 343.01998901367 85 1 delete
08:19:56 60.407415 30.327628 7 67.8 3.4140887260437 342.89999389648 85 1 delete
08:19:53 60.407310 30.327722 7 67 3.9642508029938 333.82000732422 85 1 delete
08:19:51 60.407212 30.327867 8 63.8 5.0182991027832 325.26000976562 85 1 delete
08:19:49 60.407100 30.328022 7 61.2 4.7663559913635 319.60998535156 85 1 delete
08:19:47 60.407010 30.328168 8 61.2 4.1442103385925 314.0299987793 85 1 delete
08:19:44 60.406943 30.328408 8 55.5 2.2366394996643 338.98999023438 85 1 delete
08:19:39 60.406858 30.328493 8 60.2 2.2160725593567 333.04998779297 85 1 delete
08:19:35 60.406765 30.328558 8 60 2.6891090869904 297.98999023438 85 1 delete
08:19:32 60.406692 30.328667 9 55.1 3.1158702373505 313.94000244141 85 1 delete
08:19:31 60.406677 30.328625 8 58 3.1415786743164 306.51000976562 85 1 delete
08:19:27 60.406605 30.328750 7 57.4 5.2805261611938 280.13000488281 85 1 delete
08:19:25 60.406585 30.329000 9 58 5.3627934455872 285.64999389648 85 1 delete
08:19:22 60.406538 30.329247 7 56.4 3.9334006309509 304.73999023438 85 1 delete
08:19:21 60.406520 30.329328 7 54.7 4.0413761138916 306.7200012207 85 1 delete
08:19:19 60.406478 30.329462 8 54.9 4.9411735534668 305.07998657227 85 1 delete
08:19:17 60.406417 30.329600 7 53.6 5.840970993042 304.73999023438 85 1 delete
08:19:15 60.406342 30.329803 7 49.6 4.7972059249878 302.82000732422 85 1 delete
08:19:11 60.406273 30.329975 8 51 1.7584614753723 320.86999511719 85 1 delete
08:19:10 60.406250 30.330003 10 51.2 2.0361132621765 325.51000976562 85 1 delete
08:19:07 60.406173 30.330073 8 49.5 3.0336029529572 305.17001342773 85 1 delete
08:19:04 60.406087 30.330208 9 47.9 3.1878538131714 288.86999511719 85 1 delete
08:19:01 60.406003 30.330367 9 52.2 3.4500806331635 310.69000244141 85 1 delete
08:18:59 60.405913 30.330472 8 56.5 3.1775705814362 321.64999389648 85 1 delete
08:18:58 60.405858 30.330542 7 56.4 3.208420753479 326.67999267578 85 1 delete
08:18:56 60.405787 30.330645 8 60.7 3.5169229507446 351.58999633789 85 1 delete
08:18:52 60.405670 30.330578 7 66.7 6.0466394424438 358.89999389648 85 1 delete
08:18:50 60.405580 30.330567 8 65.2 5.5324692726135 6.4800000190735 85 1 delete
08:18:47 60.405443 30.330562 7 59 4.5709714889526 9.8599996566772 85 1 delete
08:18:44 60.405312 30.330605 8 47.7 2.4114573001862 21.190000534058 85 1 delete
08:18:36 60.405237 30.330507 9 42.7 0 0.43000000715256 85 1 delete
08:18:25 60.405237 30.330507 8 42.7 0 0.43000000715256 85 1 delete
08:18:13 60.405217 30.330507 8 42.7 0.75068819522858 0.43000000715256 85 1 delete